createdAt,value
2019-04-22T00:00:10.768Z,42.94
2019-04-22T00:02:43.523Z,43.16
2019-04-22T00:05:16.586Z,42.65
2019-04-22T00:08:06.823Z,42.97
2019-04-22T00:10:32.377Z,43.17
2019-04-22T00:13:00.062Z,43.51
2019-04-22T00:15:19.491Z,43.23
2019-04-22T00:18:03.743Z,43.49
2019-04-22T00:20:22.671Z,43.62
2019-04-22T00:22:51.878Z,43.53
2019-04-22T00:25:24.505Z,43.60
2019-04-22T00:27:51.089Z,43.91
2019-04-22T00:30:16.438Z,43.27
2019-04-22T00:32:42.118Z,43.57
2019-04-22T00:35:14.766Z,43.65
2019-04-22T00:37:43.854Z,43.79
2019-04-22T00:40:07.339Z,44.14
2019-04-22T00:42:39.166Z,43.73
2019-04-22T00:45:08.055Z,43.64
2019-04-22T00:47:34.947Z,43.82
2019-04-22T00:52:28.500Z,43.75
2019-04-22T00:54:59.517Z,43.49
2019-04-22T00:57:21.447Z,43.63
2019-04-22T00:59:55.409Z,43.46
2019-04-22T01:02:20.280Z,43.84
2019-04-22T01:04:48.904Z,44.01
2019-04-22T01:07:18.942Z,43.66
2019-04-22T01:09:49.356Z,43.44
2019-04-22T01:12:13.575Z,43.51
2019-04-22T01:14:41.352Z,43.09
2019-04-22T01:17:07.921Z,43.03
2019-04-22T01:19:43.866Z,43.27
2019-04-22T01:21:58.302Z,43.69
2019-04-22T01:24:31.081Z,43.74
2019-04-22T01:26:53.771Z,44.15
2019-04-22T01:29:16.144Z,44.42
2019-04-22T01:31:36.268Z,44.85
2019-04-22T01:34:16.195Z,45.27
2019-04-22T01:36:51.614Z,44.74
2019-04-22T01:39:23.212Z,44.49
2019-04-22T01:42:03.912Z,44.72
2019-04-22T01:46:50.845Z,45.28
2019-04-22T01:49:15.954Z,45.30
2019-04-22T01:51:54.291Z,45.44
2019-04-22T01:54:22.112Z,45.25
2019-04-22T01:56:44.965Z,45.62
2019-04-22T01:59:00.681Z,45.43
2019-04-22T02:01:41.628Z,45.79
2019-04-22T02:04:15.221Z,45.71
2019-04-22T02:06:35.093Z,45.80
2019-04-22T02:09:09.485Z,46.17
2019-04-22T02:11:37.296Z,46.02
2019-04-22T02:13:56.645Z,45.22
2019-04-22T02:16:32.335Z,45.43
2019-04-22T02:18:53.073Z,45.93
2019-04-22T02:21:15.274Z,46.18
2019-04-22T02:26:15.787Z,45.51
2019-04-22T02:28:42.727Z,45.72
2019-04-22T02:38:58.781Z,44.56
2019-04-22T02:48:53.354Z,43.95
2019-04-22T02:54:15.234Z,44.15
2019-04-22T02:58:44.946Z,44.24
2019-04-22T03:03:45.487Z,44.13
2019-04-22T03:06:05.326Z,44.15
2019-04-22T03:08:25.572Z,44.10
2019-04-22T03:10:56.507Z,44.59
2019-04-22T03:15:52.881Z,45.01
2019-04-22T03:18:19.562Z,45.16
2019-04-22T03:20:53.387Z,45.65
2019-04-22T03:23:31.774Z,45.92
2019-04-22T03:28:05.109Z,45.76
2019-04-22T03:36:58.102Z,46.00
2019-04-22T03:37:56.193Z,46.10
2019-04-22T03:43:13.656Z,46.55
2019-04-22T03:52:53.099Z,46.11
2019-04-22T04:02:54.205Z,45.10
2019-04-22T04:05:17.156Z,44.99
2019-04-22T04:12:42.095Z,44.56
2019-04-22T04:15:21.168Z,44.57
2019-04-22T04:25:10.024Z,43.24
2019-04-22T04:35:12.704Z,43.28
2019-04-22T04:37:32.151Z,42.78
2019-04-22T04:39:44.219Z,42.52
2019-04-22T04:42:32.938Z,42.27
2019-04-22T04:47:11.594Z,42.29
2019-04-22T04:49:36.684Z,42.05
2019-04-22T04:54:31.860Z,41.36
2019-04-22T04:57:14.601Z,41.21
2019-04-22T05:01:55.175Z,41.54
2019-04-22T05:04:26.398Z,41.60
2019-04-22T05:07:05.781Z,41.52
2019-04-22T05:11:54.057Z,41.86
2019-04-22T05:14:14.433Z,41.92
2019-04-22T05:16:44.637Z,41.96
2019-04-22T05:19:12.874Z,42.39
2019-04-22T05:21:36.331Z,42.94
2019-04-22T05:24:02.377Z,43.44
2019-04-22T05:26:30.972Z,44.20
2019-04-22T05:28:53.084Z,43.96
2019-04-22T05:31:24.372Z,44.36
2019-04-22T05:33:47.950Z,45.18
2019-04-22T05:36:25.990Z,44.75
2019-04-22T05:38:46.309Z,45.10
2019-04-22T05:43:40.825Z,45.38
2019-04-22T05:46:09.221Z,45.65
2019-04-22T05:48:41.523Z,46.10
2019-04-22T05:51:01.120Z,46.26
2019-04-22T05:53:37.206Z,45.89
2019-04-22T05:56:04.186Z,45.98
2019-04-22T05:58:32.925Z,46.02
2019-04-22T06:03:37.897Z,44.56
2019-04-22T06:06:07.825Z,44.29
2019-04-22T06:08:29.576Z,43.68
2019-04-22T06:11:04.316Z,43.17
2019-04-22T06:13:26.783Z,43.32
2019-04-22T06:15:52.920Z,42.59
2019-04-22T06:18:27.265Z,42.48
2019-04-22T06:21:09.019Z,42.38
2019-04-22T06:26:05.836Z,41.72
2019-04-22T06:28:28.836Z,41.53
2019-04-22T06:30:54.615Z,41.48
2019-04-22T06:33:20.216Z,41.29
2019-04-22T06:38:30.172Z,40.32
2019-04-22T06:43:08.827Z,40.59
2019-04-22T06:45:35.291Z,39.94
2019-04-22T06:48:17.903Z,40.17
2019-04-22T06:50:40.483Z,39.92
2019-04-22T06:53:02.971Z,39.85
2019-04-22T06:55:35.626Z,39.60
2019-04-22T06:58:00.375Z,39.65
2019-04-22T07:03:26.287Z,39.91
2019-04-22T07:05:25.223Z,39.98
2019-04-22T07:08:02.775Z,39.91
2019-04-22T07:10:28.631Z,39.54
2019-04-22T07:12:48.727Z,39.65
2019-04-22T07:15:31.687Z,39.39
2019-04-22T07:20:10.981Z,39.38
2019-04-22T07:22:51.255Z,39.34
2019-04-22T07:25:06.235Z,39.33
2019-04-22T07:27:30.123Z,39.42
2019-04-22T07:30:09.474Z,39.42
2019-04-22T07:32:54.954Z,39.20
2019-04-22T07:35:02.024Z,38.62
2019-04-22T07:37:39.104Z,38.14
2019-04-22T07:39:50.128Z,38.89
2019-04-22T07:42:28.218Z,38.24
2019-04-22T07:44:54.788Z,38.10
2019-04-22T07:47:25.750Z,38.54
2019-04-22T07:52:18.811Z,39.34
2019-04-22T07:54:46.722Z,38.77
2019-04-22T07:57:22.739Z,38.55
2019-04-22T07:59:40.355Z,38.45
2019-04-22T08:04:56.019Z,40.07
2019-04-22T08:07:05.450Z,39.33
2019-04-22T08:09:39.775Z,39.46
2019-04-22T08:14:28.309Z,38.21
2019-04-22T08:17:01.566Z,38.43
2019-04-22T08:19:33.145Z,39.48
2019-04-22T08:21:52.130Z,39.06
2019-04-22T08:24:35.713Z,39.14
2019-04-22T08:26:47.643Z,38.72
2019-04-22T08:29:20.193Z,37.85
2019-04-22T08:31:48.695Z,38.10
2019-04-22T08:34:14.188Z,38.52
2019-04-22T08:36:55.436Z,37.58
2019-04-22T08:39:13.651Z,38.44
2019-04-22T08:41:43.823Z,38.08
2019-04-22T08:44:07.667Z,38.53
2019-04-22T08:46:53.948Z,38.62
2019-04-22T08:48:59.005Z,38.98
2019-04-22T08:51:31.022Z,38.91
2019-04-22T08:54:13.703Z,39.41
2019-04-22T08:56:32.434Z,40.53
2019-04-22T08:59:02.046Z,40.99
2019-04-22T09:01:23.397Z,41.04
2019-04-22T09:03:52.475Z,41.68
2019-04-22T09:06:36.869Z,40.44
2019-04-22T09:08:50.408Z,40.39
2019-04-22T09:11:20.064Z,40.16
2019-04-22T09:13:43.337Z,40.53
2019-04-22T09:16:14.529Z,40.30
2019-04-22T09:18:42.219Z,39.67
2019-04-22T09:21:15.120Z,40.56
2019-04-22T09:23:37.123Z,39.72
2019-04-22T09:26:03.841Z,39.52
2019-04-22T09:28:33.246Z,39.09
2019-04-22T09:31:02.036Z,39.26
2019-04-22T09:33:27.637Z,39.63
2019-04-22T09:38:32.847Z,39.13
2019-04-22T09:41:05.416Z,38.89
2019-04-22T09:43:17.034Z,38.94
2019-04-22T09:45:47.712Z,39.32
2019-04-22T09:48:18.804Z,38.93
2019-04-22T09:50:43.182Z,38.39
2019-04-22T09:53:08.095Z,38.57
2019-04-22T09:55:34.558Z,38.25
2019-04-22T09:58:02.788Z,38.24
2019-04-22T10:00:39.504Z,37.87
2019-04-22T10:03:10.030Z,37.61
2019-04-22T10:05:32.871Z,37.38
2019-04-22T10:08:14.554Z,36.95
2019-04-22T10:10:26.846Z,36.47
2019-04-22T10:12:57.805Z,35.82
2019-04-22T10:15:26.749Z,35.71
2019-04-22T10:17:57.993Z,35.11
2019-04-22T10:20:28.178Z,34.32
2019-04-22T10:22:53.216Z,34.08
2019-04-22T10:25:16.334Z,34.11
2019-04-22T10:27:51.389Z,33.65
2019-04-22T10:30:32.148Z,33.59
2019-04-22T10:32:43.027Z,33.47
2019-04-22T10:34:59.103Z,33.54
2019-04-22T10:37:21.816Z,34.54
2019-04-22T10:39:56.221Z,34.68
2019-04-22T10:42:17.405Z,34.80
2019-04-22T10:44:45.227Z,34.83
2019-04-22T10:47:11.918Z,35.10
2019-04-22T10:49:38.434Z,35.13
2019-04-22T10:52:04.645Z,34.92
2019-04-22T10:54:31.485Z,35.21
2019-04-22T10:56:59.027Z,35.77
2019-04-22T10:59:24.952Z,35.98
2019-04-22T11:01:50.951Z,36.11
2019-04-22T11:04:17.550Z,36.02
2019-04-22T11:06:52.154Z,35.61
2019-04-22T11:09:12.488Z,35.76
2019-04-22T11:11:48.768Z,35.56
2019-04-22T11:14:07.476Z,35.53
2019-04-22T11:16:35.177Z,35.17
2019-04-22T11:19:01.478Z,34.75
2019-04-22T11:21:27.557Z,35.17
2019-04-22T11:23:54.571Z,35.20
2019-04-22T11:26:21.883Z,35.30
2019-04-22T11:28:49.328Z,34.82
2019-04-22T11:31:16.542Z,35.25
2019-04-22T11:33:42.874Z,35.55
2019-04-22T11:36:10.123Z,35.03
2019-04-22T11:38:40.381Z,34.72
2019-04-22T11:41:05.423Z,34.24
2019-04-22T11:43:32.430Z,33.54
2019-04-22T11:45:59.568Z,33.54
2019-04-22T11:48:27.034Z,34.04
2019-04-22T11:50:53.739Z,34.61
2019-04-22T11:53:20.693Z,34.56
2019-04-22T11:55:46.837Z,34.66
2019-04-22T11:58:12.957Z,33.99
2019-04-22T12:00:40.934Z,33.71
2019-04-22T12:03:07.465Z,34.54
2019-04-22T12:05:34.299Z,34.49
2019-04-22T12:08:00.627Z,35.57
2019-04-22T12:10:35.702Z,35.65
2019-04-22T12:12:57.741Z,35.46
2019-04-22T12:15:24.689Z,35.22
2019-04-22T12:17:51.031Z,35.75
2019-04-22T12:20:18.396Z,35.94
2019-04-22T12:22:45.333Z,36.37
2019-04-22T12:25:17.930Z,35.70
2019-04-22T12:27:41.255Z,35.35
2019-04-22T12:30:12.345Z,35.42
2019-04-22T12:32:39.021Z,33.46
2019-04-22T12:35:07.198Z,33.62
2019-04-22T12:37:40.643Z,33.62
2019-04-22T12:40:04.271Z,34.41
2019-04-22T12:42:31.269Z,32.85
2019-04-22T12:44:58.327Z,33.07
2019-04-22T12:47:24.472Z,33.92
2019-04-22T12:49:59.802Z,33.02
2019-04-22T12:52:26.648Z,32.86
2019-04-22T12:54:46.929Z,32.48
2019-04-22T12:57:14.638Z,31.88
2019-04-22T12:59:41.802Z,31.85
2019-04-22T13:02:09.084Z,32.43
2019-04-22T13:04:36.251Z,31.35
2019-04-22T13:07:03.818Z,30.59
2019-04-22T13:09:29.823Z,30.73
2019-04-22T13:11:57.169Z,31.00
2019-04-22T13:14:23.488Z,30.25
2019-04-22T13:16:49.347Z,29.91
2019-04-22T13:19:18.649Z,30.16
2019-04-22T13:21:44.740Z,28.51
2019-04-22T13:24:11.021Z,27.82
2019-04-22T13:26:38.113Z,27.29
2019-04-22T13:29:05.207Z,27.55
2019-04-22T13:31:32.871Z,30.19
2019-04-22T13:34:01.682Z,29.37
2019-04-22T13:36:28.296Z,28.07
2019-04-22T13:38:55.237Z,28.89
2019-04-22T13:41:31.792Z,29.65
2019-04-22T13:43:49.320Z,28.35
2019-04-22T13:46:16.902Z,26.21
2019-04-22T13:49:08.716Z,24.59
2019-04-22T13:52:15.377Z,23.94
2019-04-22T13:56:23.793Z,21.54
2019-04-22T13:58:48.448Z,23.36
2019-04-22T14:01:05.180Z,25.28
2019-04-22T14:03:42.837Z,24.83
2019-04-22T14:06:09.135Z,23.45
2019-04-22T14:08:35.329Z,23.28
2019-04-22T14:11:14.903Z,24.36
2019-04-22T14:13:30.066Z,25.24
2019-04-22T14:15:56.993Z,28.33
2019-04-22T14:18:23.230Z,28.68
2019-04-22T14:20:49.286Z,26.84
2019-04-22T14:23:15.952Z,25.79
2019-04-22T14:25:43.094Z,26.49
2019-04-22T14:30:37.177Z,25.38
2019-04-22T14:33:04.997Z,24.33
2019-04-22T14:35:31.350Z,23.95
2019-04-22T14:37:58.312Z,24.60
2019-04-22T14:40:26.567Z,22.71
2019-04-22T14:43:17.618Z,21.04
2019-04-22T14:44:24.478Z,25.27
2019-04-22T14:45:58.712Z,19.96
2019-04-22T14:48:22.583Z,20.56
2019-04-22T14:50:42.240Z,22.58
2019-04-22T14:53:11.230Z,24.47
2019-04-22T14:55:22.831Z,24.60
2019-04-22T14:57:44.406Z,25.25
2019-04-22T15:00:15.853Z,26.51
2019-04-22T15:02:41.939Z,27.78
2019-04-22T15:05:08.214Z,28.47
2019-04-22T15:07:35.096Z,29.09
2019-04-22T15:10:01.985Z,29.21
2019-04-22T15:12:36.701Z,29.91
2019-04-22T15:14:57.573Z,31.16
2019-04-22T15:17:42.900Z,31.07
2019-04-22T15:20:11.938Z,31.07
2019-04-22T15:22:38.876Z,31.46
2019-04-22T15:25:05.850Z,31.41
2019-04-22T15:27:33.069Z,31.47
2019-04-22T15:29:59.296Z,31.92
2019-04-22T15:32:25.380Z,32.80
2019-04-22T15:34:51.317Z,33.04
2019-04-22T15:37:18.086Z,33.00
2019-04-22T15:39:45.665Z,33.68
2019-04-22T15:42:19.840Z,34.32
2019-04-22T15:44:39.968Z,35.43
2019-04-22T15:47:06.995Z,34.59
2019-04-22T15:49:34.029Z,35.24
2019-04-22T15:52:02.170Z,35.01
2019-04-22T15:54:28.073Z,35.02
2019-04-22T15:56:54.876Z,35.24
2019-04-22T15:59:41.679Z,35.06
2019-04-22T16:01:50.463Z,35.35
2019-04-22T16:04:16.983Z,34.98
2019-04-22T16:06:43.276Z,35.87
2019-04-22T16:09:11.112Z,36.53
2019-04-22T16:11:38.050Z,37.05
2019-04-22T16:14:04.346Z,36.20
2019-04-22T16:16:30.555Z,36.82
2019-04-22T16:18:56.482Z,36.92
2019-04-22T16:21:32.669Z,37.11
2019-04-22T16:24:04.532Z,37.21
2019-04-22T16:26:38.426Z,37.55
2019-04-22T16:29:05.311Z,36.96
2019-04-22T16:31:35.674Z,36.85
2019-04-22T16:34:02.652Z,37.30
2019-04-22T16:36:29.192Z,36.99
2019-04-22T16:38:57.009Z,36.91
2019-04-22T16:41:24.552Z,37.27
2019-04-22T16:43:50.842Z,37.24
2019-04-22T16:46:16.884Z,37.06
2019-04-22T16:48:43.394Z,37.81
2019-04-22T16:51:09.899Z,37.33
2019-04-22T16:53:37.047Z,37.45
2019-04-22T16:56:04.630Z,38.01
2019-04-22T16:58:30.864Z,38.58
2019-04-22T17:00:58.633Z,38.20
2019-04-22T17:03:26.853Z,39.09
2019-04-22T17:06:10.028Z,39.14
2019-04-22T17:08:37.005Z,39.57
2019-04-22T17:11:04.175Z,38.87
2019-04-22T17:13:32.807Z,38.71
2019-04-22T17:16:00.861Z,38.77
2019-04-22T17:18:27.359Z,38.79
2019-04-22T17:20:54.888Z,39.38
2019-04-22T17:23:20.959Z,39.90
2019-04-22T17:25:48.217Z,40.07
2019-04-22T17:28:15.398Z,41.10
2019-04-22T17:30:41.624Z,41.26
2019-04-22T17:33:08.442Z,41.21
2019-04-22T17:35:36.044Z,41.63
2019-04-22T17:38:12.569Z,41.72
2019-04-22T17:40:49.461Z,42.08
2019-04-22T17:43:34.272Z,42.55
2019-04-22T17:45:57.270Z,42.47
2019-04-22T17:48:30.455Z,42.86
2019-04-22T17:51:10.600Z,43.33
2019-04-22T17:53:34.807Z,44.38
2019-04-22T17:56:02.361Z,45.65
2019-04-22T17:58:29.029Z,44.75
2019-04-22T18:00:50.714Z,45.39
2019-04-22T18:03:13.105Z,45.46
2019-04-22T18:05:38.431Z,46.08
2019-04-22T18:08:17.722Z,46.93
2019-04-22T18:10:44.048Z,47.74
2019-04-22T18:13:23.825Z,47.87
2019-04-22T18:15:43.534Z,48.12
2019-04-22T18:18:12.514Z,48.33
2019-04-22T18:20:29.302Z,48.77
2019-04-22T18:22:54.643Z,48.62
2019-04-22T18:25:29.572Z,49.70
2019-04-22T18:28:10.462Z,48.80
2019-04-22T18:30:20.362Z,49.11
2019-04-22T18:32:57.050Z,49.14
2019-04-22T18:35:26.545Z,49.24
2019-04-22T18:37:53.660Z,49.40
2019-04-22T18:40:24.039Z,49.63
2019-04-22T18:42:58.401Z,49.42
2019-04-22T18:47:48.815Z,49.00
2019-04-22T18:50:26.531Z,48.45
2019-04-22T18:52:59.234Z,48.42
2019-04-22T18:55:20.733Z,49.01
2019-04-22T18:58:02.794Z,48.41
2019-04-22T19:00:23.321Z,48.70
2019-04-22T19:02:55.831Z,48.45
2019-04-22T19:05:34.704Z,47.87
2019-04-22T19:08:12.657Z,48.20
2019-04-22T19:10:53.255Z,47.83
2019-04-22T19:13:34.804Z,47.96
2019-04-22T19:15:39.903Z,47.97
2019-04-22T19:18:10.545Z,48.21
2019-04-22T19:20:38.080Z,47.68
2019-04-22T19:23:04.179Z,47.49
2019-04-22T19:25:24.075Z,47.60
2019-04-22T19:28:01.447Z,47.73
2019-04-22T19:30:30.048Z,47.68
2019-04-22T19:32:58.600Z,47.00
2019-04-22T19:35:25.723Z,47.32
2019-04-22T19:37:50.811Z,47.32
2019-04-22T19:40:24.078Z,47.21
2019-04-22T19:42:57.484Z,46.49
2019-04-22T19:45:15.821Z,45.71
2019-04-22T19:47:53.533Z,45.12
2019-04-22T19:50:16.392Z,44.63
2019-04-22T19:52:39.814Z,44.39
2019-04-22T19:55:12.586Z,44.21
2019-04-22T19:57:33.998Z,43.77
2019-04-22T20:00:05.402Z,44.31
2019-04-22T20:02:41.124Z,44.22
2019-04-22T20:05:31.081Z,43.87
2019-04-22T20:07:46.958Z,43.30
2019-04-22T20:10:20.661Z,42.58
2019-04-22T20:12:49.316Z,42.96
2019-04-22T20:15:15.618Z,42.77
2019-04-22T20:18:07.567Z,42.86
2019-04-22T20:20:19.671Z,42.48
2019-04-22T20:22:37.504Z,42.31
2019-04-22T20:24:58.368Z,42.46
2019-04-22T20:27:36.404Z,41.50
2019-04-22T20:30:13.735Z,41.42
2019-04-22T20:32:32.663Z,41.70
2019-04-22T20:35:09.451Z,41.88
2019-04-22T20:37:37.065Z,42.02
2019-04-22T20:40:08.583Z,41.30
2019-04-22T20:42:45.032Z,41.35
2019-04-22T20:45:04.010Z,41.17
2019-04-22T20:47:29.312Z,41.45
2019-04-22T20:50:02.226Z,41.57
2019-04-22T20:52:34.226Z,41.15
2019-04-22T20:54:55.913Z,40.87
2019-04-22T20:57:31.957Z,41.10
2019-04-22T20:59:52.247Z,41.27
2019-04-22T21:02:17.955Z,41.51
2019-04-22T21:04:41.462Z,40.54
2019-04-22T21:07:13.805Z,40.63
2019-04-22T21:09:48.767Z,40.54
2019-04-22T21:12:13.944Z,40.59
2019-04-22T21:14:51.422Z,40.13
2019-04-22T21:17:13.622Z,39.05
2019-04-22T21:19:47.626Z,38.95
2019-04-22T21:22:07.966Z,38.13
2019-04-22T21:24:34.973Z,37.98
2019-04-22T21:27:10.252Z,38.34
2019-04-22T21:29:26.594Z,38.08
2019-04-22T21:32:06.223Z,38.32
2019-04-22T21:34:31.713Z,38.61
2019-04-22T21:37:02.596Z,39.33
2019-04-22T21:39:26.347Z,39.01
2019-04-22T21:41:54.405Z,38.89
2019-04-22T21:44:29.688Z,38.79
2019-04-22T21:46:57.703Z,38.07
2019-04-22T21:49:25.422Z,37.90
2019-04-22T21:51:56.811Z,37.25
2019-04-22T21:54:22.424Z,37.33
2019-04-22T21:57:07.435Z,37.49
2019-04-22T21:59:29.296Z,37.72
2019-04-22T22:01:56.877Z,37.58
2019-04-22T22:04:24.525Z,37.73
2019-04-22T22:06:41.238Z,37.68
2019-04-22T22:09:20.489Z,37.76
2019-04-22T22:11:49.145Z,37.62
2019-04-22T22:14:16.969Z,37.50
2019-04-22T22:16:38.416Z,37.43
2019-04-22T22:19:11.121Z,37.61
2019-04-22T22:21:49.657Z,37.59
2019-04-22T22:24:11.559Z,37.37
2019-04-22T22:26:39.925Z,37.29
2019-04-22T22:29:15.664Z,37.56
2019-04-22T22:31:36.767Z,37.97
2019-04-22T22:34:04.127Z,40.24
2019-04-22T22:36:26.752Z,40.92
2019-04-22T22:38:48.364Z,42.35
2019-04-22T22:41:03.705Z,43.61
2019-04-22T22:43:36.082Z,44.32
2019-04-22T22:46:12.054Z,45.14
2019-04-22T22:48:51.392Z,45.92
2019-04-22T22:51:15.642Z,48.27
2019-04-22T22:53:44.415Z,48.57
2019-04-22T22:56:13.680Z,49.14
2019-04-22T22:58:42.534Z,49.74
2019-04-22T23:01:06.351Z,51.19
2019-04-22T23:06:03.235Z,52.84
2019-04-22T23:08:31.956Z,52.75
2019-04-22T23:15:44.368Z,55.19
2019-04-22T23:18:01.675Z,55.13
2019-04-22T23:20:35.404Z,55.96
2019-04-22T23:23:23.909Z,56.73
2019-04-22T23:25:54.788Z,57.24
2019-04-22T23:28:16.117Z,57.37
2019-04-22T23:30:57.106Z,57.30
2019-04-22T23:33:37.469Z,57.54
2019-04-22T23:36:10.102Z,58.36
2019-04-22T23:38:47.654Z,59.03
2019-04-22T23:41:42.717Z,59.53
2019-04-22T23:44:06.993Z,60.33
2019-04-22T23:46:25.434Z,61.12
2019-04-22T23:48:51.558Z,61.73
2019-04-22T23:51:19.668Z,62.94
2019-04-22T23:54:05.832Z,63.24
2019-04-22T23:56:15.206Z,63.12
2019-04-22T23:59:02.660Z,62.71
